Kansas City, Missouri
Traffic Map
Current Weather Conditions
Kansas City, Missouri
Clear
Clear
21°
Feels Like: 21°
Wind Chill: 21° Ceiling: Unl
Heat Index: 21° Visibility: 10mi
Dew Point: 10° Wind: 3mph
Humidity: 63% Direction: 270° (W)
Pressure: 30.66in Gusts: 0mph
Raw Report DataKMKC 090354Z 27003KT 10SM CLR M06/M12 A3066 RMK AO2 SLP395 T10611122
Traffic Incident Summary
Active as of:
Severity:
Category:
InformationThere was an issue retrieving the traffic information for this location. Please try a different location or try again shortly.
Advertisements
Track Severe Weather on mobile